createdAt,value
2023-04-11T00:01:38.981Z,23.07
2023-04-11T00:04:40.701Z,23.20
2023-04-11T00:07:42.382Z,23.27
2023-04-11T00:10:45.626Z,23.10
2023-04-11T00:13:48.492Z,22.27
2023-04-11T00:16:53.768Z,22.43
2023-04-11T00:19:55.915Z,22.67
2023-04-11T00:22:58.443Z,22.70
2023-04-11T00:26:00.042Z,23.20
2023-04-11T00:29:01.750Z,22.93
2023-04-11T00:32:03.818Z,24.20
2023-04-11T00:35:05.790Z,23.57
2023-04-11T00:38:07.437Z,24.90
2023-04-11T00:41:09.084Z,23.37
2023-04-11T00:44:11.713Z,23.10
2023-04-11T00:47:13.851Z,23.43
2023-04-11T00:50:16.785Z,23.33
2023-04-11T00:53:18.924Z,23.23
2023-04-11T00:56:20.880Z,24.20
2023-04-11T00:59:22.705Z,24.63
2023-04-11T01:02:27.360Z,22.50
2023-04-11T01:05:29.604Z,24.40
2023-04-11T01:08:31.216Z,23.83
2023-04-11T01:11:33.658Z,23.80
2023-04-11T01:14:35.461Z,25.37
2023-04-11T01:17:37.268Z,26.00
2023-04-11T01:20:39.629Z,25.30
2023-04-11T01:23:41.690Z,24.93
2023-04-11T01:26:43.964Z,25.53
2023-04-11T01:29:45.907Z,24.17
2023-04-11T01:32:47.693Z,24.67
2023-04-11T01:35:49.421Z,22.87
2023-04-11T01:38:51.094Z,24.80
2023-04-11T01:41:54.049Z,24.10
2023-04-11T01:44:56.534Z,24.37
2023-04-11T01:47:58.425Z,24.30
2023-04-11T01:51:00.168Z,23.70
2023-04-11T01:54:01.903Z,24.60
2023-04-11T01:57:04.133Z,23.10
2023-04-11T02:00:06.448Z,23.57
2023-04-11T02:03:17.649Z,23.77
2023-04-11T02:06:19.574Z,24.97
2023-04-11T02:09:21.223Z,23.60
2023-04-11T02:12:22.869Z,22.80
2023-04-11T02:15:24.572Z,22.80
2023-04-11T02:18:26.139Z,23.53
2023-04-11T02:21:29.322Z,23.27
2023-04-11T02:24:32.602Z,23.63
2023-04-11T02:27:34.439Z,22.10
2023-04-11T02:30:36.098Z,23.13
2023-04-11T02:33:37.723Z,23.87
2023-04-11T02:36:39.965Z,24.33
2023-04-11T02:39:41.561Z,23.77
2023-04-11T02:42:43.454Z,24.37
2023-04-11T02:45:45.710Z,24.27
2023-04-11T02:48:48.344Z,23.00
2023-04-11T02:51:50.434Z,23.13
2023-04-11T02:54:52.115Z,23.57
2023-04-11T02:57:53.894Z,22.67
2023-04-11T03:00:56.848Z,23.43
2023-04-11T03:03:58.895Z,23.70
2023-04-11T03:07:09.213Z,22.50
2023-04-11T03:10:11.398Z,23.17
2023-04-11T03:13:13.136Z,22.43
2023-04-11T03:16:15.759Z,24.37
2023-04-11T03:19:17.441Z,23.43
2023-04-11T03:22:19.163Z,22.00
2023-04-11T03:25:22.744Z,23.63
2023-04-11T03:28:26.279Z,24.40
2023-04-11T03:31:30.310Z,24.83
2023-04-11T03:34:32.133Z,24.40
2023-04-11T03:37:33.852Z,22.87
2023-04-11T03:40:35.971Z,23.07
2023-04-11T03:43:43.680Z,23.47
2023-04-11T03:46:45.786Z,23.90
2023-04-11T03:49:48.021Z,22.73
2023-04-11T03:52:50.605Z,24.87
2023-04-11T03:55:53.730Z,24.50
2023-04-11T03:58:59.066Z,25.33
2023-04-11T04:02:06.234Z,24.33
2023-04-11T04:05:10.535Z,26.93
2023-04-11T04:08:14.033Z,23.70
2023-04-11T04:11:18.523Z,24.37
2023-04-11T04:14:21.591Z,24.57
2023-04-11T04:17:23.886Z,23.00
2023-04-11T04:20:25.750Z,22.13
2023-04-11T04:23:32.540Z,23.03
2023-04-11T04:26:53.814Z,22.90
2023-04-11T04:30:11.228Z,23.23
2023-04-11T04:33:28.126Z,24.93
2023-04-11T04:36:33.301Z,27.13
2023-04-11T04:39:35.180Z,25.80
2023-04-11T04:42:37.355Z,24.63
2023-04-11T04:45:40.333Z,23.43
2023-04-11T04:48:42.430Z,25.03
2023-04-11T04:51:44.049Z,25.47
2023-04-11T04:54:45.817Z,25.10
2023-04-11T04:57:47.701Z,25.70
2023-04-11T05:00:55.899Z,24.13
2023-04-11T05:04:02.602Z,21.33
2023-04-11T05:07:20.880Z,23.07
2023-04-11T05:10:25.937Z,24.03
2023-04-11T05:13:28.740Z,22.73
2023-04-11T05:16:31.297Z,24.83
2023-04-11T05:19:33.701Z,25.23
2023-04-11T05:22:36.401Z,23.97
2023-04-11T05:25:38.174Z,25.80
2023-04-11T05:28:43.627Z,25.80
2023-04-11T05:31:50.208Z,23.17
2023-04-11T05:34:55.190Z,28.00
2023-04-11T05:38:06.386Z,22.90
2023-04-11T05:41:08.791Z,24.10
2023-04-11T05:44:10.622Z,27.47
2023-04-11T05:47:12.357Z,23.97
2023-04-11T05:50:14.380Z,25.17
2023-04-11T05:53:16.514Z,24.57
2023-04-11T05:56:18.124Z,25.80
2023-04-11T05:59:25.080Z,27.47
2023-04-11T06:02:28.784Z,27.70
2023-04-11T06:05:31.628Z,26.67
2023-04-11T06:08:34.409Z,26.70
2023-04-11T06:11:36.216Z,28.27
2023-04-11T06:14:40.599Z,28.37
2023-04-11T06:17:42.522Z,28.00
2023-04-11T06:20:46.230Z,27.67
2023-04-11T06:23:47.936Z,27.17
2023-04-11T06:26:49.495Z,25.93
2023-04-11T06:29:51.161Z,24.83
2023-04-11T06:32:52.917Z,26.83
2023-04-11T06:35:54.623Z,24.30
2023-04-11T06:38:56.420Z,24.47
2023-04-11T06:41:58.049Z,24.03
2023-04-11T06:45:01.064Z,23.70
2023-04-11T06:48:02.730Z,24.93
2023-04-11T06:51:04.488Z,25.33
2023-04-11T06:54:06.437Z,27.07
2023-04-11T06:57:10.179Z,25.93
2023-04-11T07:00:13.208Z,25.80
2023-04-11T07:03:15.054Z,25.30
2023-04-11T07:06:17.036Z,24.90
2023-04-11T07:09:18.709Z,24.40
2023-04-11T07:12:20.504Z,24.33
2023-04-11T07:15:23.858Z,23.53
2023-04-11T07:18:27.420Z,28.03
2023-04-11T07:21:29.559Z,23.43
2023-04-11T07:24:31.208Z,22.30
2023-04-11T07:27:32.808Z,22.47
2023-04-11T07:30:35.657Z,22.00
2023-04-11T07:33:37.729Z,21.17
2023-04-11T07:36:39.466Z,21.27
2023-04-11T07:39:41.080Z,22.77
2023-04-11T07:42:42.801Z,21.37
2023-04-11T07:45:44.660Z,21.27
2023-04-11T07:48:46.400Z,23.20
2023-04-11T07:51:48.055Z,22.50
2023-04-11T07:54:49.799Z,20.87
2023-04-11T07:57:51.590Z,20.77
2023-04-11T08:00:53.825Z,18.50
2023-04-11T08:03:56.322Z,21.43
2023-04-11T08:06:58.294Z,22.03
2023-04-11T08:09:59.872Z,21.33
2023-04-11T08:13:01.565Z,19.43
2023-04-11T08:16:04.372Z,20.40
2023-04-11T08:19:06.960Z,19.20
2023-04-11T08:22:08.564Z,20.23
2023-04-11T08:25:11.001Z,25.07
2023-04-11T08:28:12.656Z,23.40
2023-04-11T08:31:14.272Z,19.80
2023-04-11T08:34:16.220Z,18.80
2023-04-11T08:37:17.915Z,15.07
2023-04-11T08:40:19.603Z,19.87
2023-04-11T08:43:21.929Z,19.17
2023-04-11T08:46:23.835Z,20.30
2023-04-11T08:49:25.520Z,18.70
2023-04-11T08:52:27.452Z,19.40
2023-04-11T08:55:29.431Z,22.43
2023-04-11T08:58:32.373Z,18.40
2023-04-11T09:01:37.100Z,20.50
2023-04-11T09:04:40.325Z,21.23
2023-04-11T09:07:49.931Z,19.53
2023-04-11T09:10:51.789Z,19.23
2023-04-11T09:14:09.912Z,17.80
2023-04-11T09:17:14.702Z,18.57
2023-04-11T09:20:20.301Z,17.33
2023-04-11T09:23:22.294Z,17.07
2023-04-11T09:26:28.102Z,18.57
2023-04-11T09:29:46.208Z,18.80
2023-04-11T09:32:48.865Z,16.73
2023-04-11T09:35:54.297Z,15.10
2023-04-11T09:38:56.787Z,15.67
2023-04-11T09:41:58.539Z,15.50
2023-04-11T09:45:00.440Z,15.43
2023-04-11T09:48:02.102Z,14.17
2023-04-11T09:51:09.709Z,11.97
2023-04-11T09:54:12.099Z,12.83
2023-04-11T09:57:14.110Z,12.20
2023-04-11T10:00:18.505Z,10.20
2023-04-11T10:03:23.500Z,10.67
2023-04-11T10:06:34.322Z,10.07
2023-04-11T10:09:38.788Z,9.43
2023-04-11T10:12:40.425Z,10.57
2023-04-11T10:16:02.240Z,9.47
2023-04-11T10:19:06.859Z,10.10
2023-04-11T10:22:08.524Z,9.93
2023-04-11T10:25:17.553Z,9.60
2023-04-11T10:28:31.356Z,10.00
2023-04-11T10:31:52.945Z,10.93
2023-04-11T10:34:54.636Z,9.83
2023-04-11T10:37:56.388Z,11.47
2023-04-11T10:41:17.168Z,9.97
2023-04-11T10:44:23.398Z,9.93
2023-04-11T10:47:26.350Z,9.63
2023-04-11T10:50:28.481Z,11.57
2023-04-11T10:53:34.133Z,11.13
2023-04-11T10:56:48.978Z,13.03
2023-04-11T10:59:50.575Z,9.87
2023-04-11T11:02:52.440Z,11.50
2023-04-11T11:06:05.271Z,12.00
2023-04-11T11:09:25.686Z,11.90
2023-04-11T11:12:27.333Z,11.77
2023-04-11T11:15:29.703Z,11.57
2023-04-11T11:18:31.586Z,11.90
2023-04-11T11:21:34.779Z,11.90
2023-04-11T11:24:36.476Z,12.30
2023-04-11T11:27:38.143Z,11.80
2023-04-11T11:30:49.329Z,11.33
2023-04-11T11:33:50.967Z,10.63
2023-04-11T11:36:53.207Z,10.43
2023-04-11T11:39:55.276Z,9.20
2023-04-11T11:42:56.970Z,11.63
2023-04-11T11:46:14.802Z,9.40
2023-04-11T11:49:16.635Z,10.00
2023-04-11T11:52:51.053Z,8.70
2023-04-11T11:55:53.332Z,11.37
2023-04-11T11:58:55.388Z,10.10
2023-04-11T12:01:57.241Z,9.43
2023-04-11T12:05:00.253Z,8.90
2023-04-11T12:08:04.112Z,9.60
2023-04-11T12:11:10.662Z,9.13
2023-04-11T12:14:21.867Z,9.43
2023-04-11T12:17:23.584Z,9.30
2023-04-11T12:20:26.438Z,7.97
2023-04-11T12:23:28.235Z,7.90
2023-04-11T12:26:29.967Z,6.80
2023-04-11T12:29:31.800Z,7.17
2023-04-11T12:32:34.197Z,7.30
2023-04-11T12:35:35.978Z,6.63
2023-04-11T12:38:37.902Z,6.47
2023-04-11T12:41:39.503Z,5.27
2023-04-11T12:44:41.193Z,6.57
2023-04-11T12:47:43.101Z,6.00
2023-04-11T12:50:45.008Z,6.60
2023-04-11T12:53:46.747Z,5.70
2023-04-11T12:56:48.401Z,5.57
2023-04-11T12:59:50.201Z,5.60
2023-04-11T13:02:51.986Z,6.60
2023-04-11T13:05:53.799Z,6.10
2023-04-11T13:08:57.208Z,4.57
2023-04-11T13:11:59.323Z,5.80
2023-04-11T13:15:01.297Z,5.50
2023-04-11T13:18:03.342Z,5.00
2023-04-11T13:21:04.978Z,5.63
2023-04-11T13:24:07.312Z,6.03
2023-04-11T13:27:09.022Z,6.20
2023-04-11T13:30:11.387Z,5.50
2023-04-11T13:33:13.015Z,6.30
2023-04-11T13:36:14.687Z,7.23
2023-04-11T13:39:16.435Z,7.03
2023-04-11T13:42:18.146Z,7.30
2023-04-11T13:45:19.910Z,8.43
2023-04-11T13:48:21.616Z,6.40
2023-04-11T13:51:23.354Z,7.27
2023-04-11T13:54:26.165Z,8.80
2023-04-11T13:57:28.577Z,6.70
2023-04-11T14:00:30.218Z,5.50
2023-04-11T14:03:33.878Z,5.70
2023-04-11T14:06:37.502Z,5.50
2023-04-11T14:09:39.224Z,5.73
2023-04-11T14:12:40.929Z,6.30
2023-04-11T14:15:42.560Z,5.97
2023-04-11T14:18:44.741Z,7.40
2023-04-11T14:21:46.548Z,10.13
2023-04-11T14:24:48.312Z,5.67
2023-04-11T14:27:50.031Z,6.90
2023-04-11T14:30:51.983Z,6.27
2023-04-11T14:33:53.862Z,6.83
2023-04-11T14:36:55.554Z,8.17
2023-04-11T14:39:57.256Z,9.00
2023-04-11T14:42:58.936Z,12.10
2023-04-11T14:46:00.674Z,8.43
2023-04-11T14:49:02.414Z,7.80
2023-04-11T14:52:04.120Z,10.57
2023-04-11T14:55:06.135Z,8.77
2023-04-11T14:58:07.692Z,8.80
2023-04-11T15:01:09.400Z,8.03
2023-04-11T15:04:11.375Z,7.23
2023-04-11T15:07:13.310Z,8.60
2023-04-11T15:10:16.549Z,9.43
2023-04-11T15:13:18.247Z,9.03
2023-04-11T15:16:21.837Z,9.30
2023-04-11T15:19:23.724Z,10.60
2023-04-11T15:22:26.458Z,11.57
2023-04-11T15:25:28.158Z,8.40
2023-04-11T15:28:34.320Z,9.83
2023-04-11T15:31:37.863Z,12.10
2023-04-11T15:34:40.625Z,12.17
2023-04-11T15:37:42.361Z,9.80
2023-04-11T15:40:44.122Z,10.57
2023-04-11T15:43:45.829Z,16.47
2023-04-11T15:46:49.473Z,8.30
2023-04-11T15:49:51.293Z,9.27
2023-04-11T15:52:52.984Z,8.57
2023-04-11T15:55:54.858Z,9.13
2023-04-11T15:58:56.537Z,9.33
2023-04-11T16:01:58.353Z,9.00
2023-04-11T16:05:01.432Z,9.40
2023-04-11T16:08:03.488Z,8.33
2023-04-11T16:11:05.411Z,10.43
2023-04-11T16:14:07.180Z,11.53
2023-04-11T16:17:08.849Z,8.30
2023-04-11T16:20:18.159Z,12.10
2023-04-11T16:23:19.879Z,19.23
2023-04-11T16:26:21.508Z,9.53
2023-04-11T16:29:23.471Z,13.53
2023-04-11T16:32:25.397Z,11.73
2023-04-11T16:35:27.091Z,13.80
2023-04-11T16:38:28.701Z,11.03
2023-04-11T16:41:30.408Z,16.43
2023-04-11T16:44:32.090Z,12.93
2023-04-11T16:47:33.937Z,10.27
2023-04-11T16:50:35.609Z,9.70
2023-04-11T16:53:37.581Z,12.90
2023-04-11T16:56:39.339Z,10.83
2023-04-11T16:59:41.442Z,14.03
2023-04-11T17:02:44.485Z,13.40
2023-04-11T17:05:46.755Z,13.20
2023-04-11T17:08:48.369Z,12.57
2023-04-11T17:11:50.035Z,12.80
2023-04-11T17:14:52.675Z,14.57
2023-04-11T17:17:54.390Z,10.43
2023-04-11T17:20:56.091Z,12.63
2023-04-11T17:23:57.845Z,14.60
2023-04-11T17:26:59.753Z,14.20
2023-04-11T17:30:01.502Z,9.80
2023-04-11T17:33:03.551Z,10.60
2023-04-11T17:36:05.704Z,12.23
2023-04-11T17:39:07.818Z,14.67
2023-04-11T17:42:10.009Z,11.37
2023-04-11T17:45:17.543Z,11.67
2023-04-11T17:48:22.961Z,13.60
2023-04-11T17:51:24.752Z,13.63
2023-04-11T17:54:26.782Z,17.20
2023-04-11T17:57:28.826Z,14.40
2023-04-11T18:00:48.420Z,21.87
2023-04-11T18:03:57.160Z,15.30
2023-04-11T18:06:59.179Z,21.70
2023-04-11T18:10:01.323Z,18.53
2023-04-11T18:13:03.522Z,22.30
2023-04-11T18:16:05.335Z,16.73
2023-04-11T18:19:07.016Z,16.87
2023-04-11T18:22:08.588Z,16.73
2023-04-11T18:25:10.448Z,15.90
2023-04-11T18:28:12.150Z,16.67
2023-04-11T18:31:14.223Z,16.47
2023-04-11T18:34:16.090Z,20.53
2023-04-11T18:37:17.893Z,18.57
2023-04-11T18:40:19.664Z,19.20
2023-04-11T18:43:21.460Z,17.60
2023-04-11T18:46:23.360Z,17.90
2023-04-11T18:49:24.974Z,18.80
2023-04-11T18:52:28.139Z,20.10
2023-04-11T18:55:30.730Z,24.33
2023-04-11T18:58:34.054Z,29.90
2023-04-11T19:01:36.517Z,22.27
2023-04-11T19:04:38.942Z,20.30
2023-04-11T19:07:41.471Z,17.53
2023-04-11T19:10:43.094Z,18.80
2023-04-11T19:13:44.697Z,17.60
2023-04-11T19:16:46.836Z,18.80
2023-04-11T19:19:48.616Z,21.00
2023-04-11T19:22:51.112Z,20.30
2023-04-11T19:25:52.790Z,19.83
2023-04-11T19:28:55.076Z,21.90
2023-04-11T19:31:56.738Z,21.67
2023-04-11T19:34:58.810Z,22.27
2023-04-11T19:38:02.662Z,22.97
2023-04-11T19:41:14.092Z,22.27
2023-04-11T19:44:16.532Z,20.33
2023-04-11T19:47:19.512Z,25.37
2023-04-11T19:50:22.969Z,24.50
2023-04-11T19:53:24.648Z,24.13
2023-04-11T19:56:26.298Z,30.27
2023-04-11T19:59:28.028Z,31.10
2023-04-11T20:02:29.753Z,27.10
2023-04-11T20:05:32.118Z,30.07
2023-04-11T20:08:33.913Z,27.90
2023-04-11T20:11:36.742Z,26.47
2023-04-11T20:14:38.514Z,28.10
2023-04-11T20:17:40.283Z,27.93
2023-04-11T20:20:42.104Z,28.20
2023-04-11T20:23:43.781Z,28.40
2023-04-11T20:26:45.616Z,31.80
2023-04-11T20:29:47.295Z,28.73
2023-04-11T20:32:49.064Z,29.90
2023-04-11T20:35:50.829Z,33.17
2023-04-11T20:38:52.591Z,29.03
2023-04-11T20:41:54.402Z,33.43
2023-04-11T20:45:02.452Z,32.43
2023-04-11T20:48:06.337Z,33.50
2023-04-11T20:51:08.770Z,31.87
2023-04-11T20:54:11.103Z,31.47
2023-04-11T20:57:12.701Z,33.37
2023-04-11T21:00:15.005Z,30.67
2023-04-11T21:03:16.887Z,33.57
2023-04-11T21:06:18.619Z,32.77
2023-04-11T21:09:20.554Z,30.85
2023-04-11T21:12:22.211Z,29.37
2023-04-11T21:15:23.930Z,31.27
2023-04-11T21:18:25.653Z,30.87
2023-04-11T21:21:28.263Z,30.33
2023-04-11T21:24:33.677Z,27.13
2023-04-11T21:27:35.621Z,28.67
2023-04-11T21:30:37.927Z,28.07
2023-04-11T21:33:39.561Z,27.67
2023-04-11T21:36:41.190Z,27.40
2023-04-11T21:39:42.870Z,28.50
2023-04-11T21:42:44.580Z,28.20
2023-04-11T21:45:46.318Z,28.87
2023-04-11T21:48:49.511Z,28.40
2023-04-11T21:51:51.824Z,24.43
2023-04-11T21:54:53.520Z,22.77
2023-04-11T21:57:55.655Z,21.80
2023-04-11T22:00:57.280Z,17.73
2023-04-11T22:03:59.652Z,16.43
2023-04-11T22:07:01.638Z,16.33
2023-04-11T22:10:09.220Z,13.43
2023-04-11T22:13:20.104Z,13.60
2023-04-11T22:16:30.338Z,12.93
2023-04-11T22:19:33.826Z,12.87
2023-04-11T22:22:35.682Z,11.67
2023-04-11T22:25:37.520Z,11.33
2023-04-11T22:28:39.308Z,10.50
2023-04-11T22:31:41.118Z,10.03
2023-04-11T22:34:42.806Z,10.77
2023-04-11T22:37:44.819Z,10.47
2023-04-11T22:40:46.515Z,10.50
2023-04-11T22:43:48.114Z,10.17
2023-04-11T22:47:00.683Z,11.30
2023-04-11T22:50:03.783Z,10.70
2023-04-11T22:53:05.947Z,11.00
2023-04-11T22:56:09.075Z,10.60
2023-04-11T22:59:10.944Z,11.00
2023-04-11T23:02:12.776Z,10.03
2023-04-11T23:05:14.721Z,10.03
2023-04-11T23:08:16.692Z,10.60
2023-04-11T23:11:18.381Z,10.00
2023-04-11T23:14:22.415Z,11.27
2023-04-11T23:17:24.771Z,10.73
2023-04-11T23:20:26.466Z,10.00
2023-04-11T23:23:28.715Z,9.93
2023-04-11T23:26:30.495Z,10.30
2023-04-11T23:29:32.250Z,9.97
2023-04-11T23:32:34.132Z,10.37
2023-04-11T23:35:36.129Z,9.63
2023-04-11T23:38:37.859Z,10.63
2023-04-11T23:41:39.518Z,9.97
2023-04-11T23:44:41.284Z,10.17
2023-04-11T23:47:42.981Z,10.73
2023-04-11T23:50:44.604Z,10.67
2023-04-11T23:53:46.302Z,11.07
2023-04-11T23:56:47.929Z,10.77
2023-04-11T23:59:49.521Z,10.50
